sensor_id;sensor_type;location;lat;lon;timestamp;P1;durP1;ratioP1;P2;durP2;ratioP2
781;SDS011;374;52.568;13.402;2024-02-21T00:02:10;23.20;;;11.73;;
781;SDS011;374;52.568;13.402;2024-02-21T00:04:36;17.60;;;10.60;;
781;SDS011;374;52.568;13.402;2024-02-21T00:07:12;17.40;;;11.53;;
781;SDS011;374;52.568;13.402;2024-02-21T00:10:01;23.50;;;11.03;;
781;SDS011;374;52.568;13.402;2024-02-21T00:12:37;22.57;;;12.50;;
781;SDS011;374;52.568;13.402;2024-02-21T00:15:08;20.23;;;9.30;;
781;SDS011;374;52.568;13.402;2024-02-21T00:17:37;19.40;;;10.60;;
781;SDS011;374;52.568;13.402;2024-02-21T00:20:03;25.83;;;11.67;;
781;SDS011;374;52.568;13.402;2024-02-21T00:22:29;18.87;;;10.57;;
781;SDS011;374;52.568;13.402;2024-02-21T00:24:58;26.90;;;12.00;;
781;SDS011;374;52.568;13.402;2024-02-21T00:27:24;27.57;;;12.00;;
781;SDS011;374;52.568;13.402;2024-02-21T00:29:50;20.93;;;11.37;;
781;SDS011;374;52.568;13.402;2024-02-21T00:32:16;21.77;;;10.90;;
781;SDS011;374;52.568;13.402;2024-02-21T00:34:43;17.70;;;10.67;;
781;SDS011;374;52.568;13.402;2024-02-21T00:37:09;22.13;;;10.33;;
781;SDS011;374;52.568;13.402;2024-02-21T00:39:35;22.30;;;11.73;;
781;SDS011;374;52.568;13.402;2024-02-21T00:42:02;21.23;;;9.07;;
781;SDS011;374;52.568;13.402;2024-02-21T00:44:27;18.50;;;10.53;;
781;SDS011;374;52.568;13.402;2024-02-21T00:46:53;20.17;;;9.83;;
781;SDS011;374;52.568;13.402;2024-02-21T00:49:20;21.60;;;11.03;;
781;SDS011;374;52.568;13.402;2024-02-21T00:51:46;16.87;;;11.17;;
781;SDS011;374;52.568;13.402;2024-02-21T00:54:12;21.60;;;10.70;;
781;SDS011;374;52.568;13.402;2024-02-21T00:56:38;15.97;;;9.73;;
781;SDS011;374;52.568;13.402;2024-02-21T00:59:05;25.43;;;9.63;;
781;SDS011;374;52.568;13.402;2024-02-21T01:01:31;16.83;;;9.30;;
781;SDS011;374;52.568;13.402;2024-02-21T01:03:56;16.73;;;11.00;;
781;SDS011;374;52.568;13.402;2024-02-21T01:06:22;17.27;;;9.80;;
781;SDS011;374;52.568;13.402;2024-02-21T01:08:48;20.10;;;9.33;;
781;SDS011;374;52.568;13.402;2024-02-21T01:11:15;21.70;;;11.13;;
781;SDS011;374;52.568;13.402;2024-02-21T01:13:41;17.37;;;10.97;;
781;SDS011;374;52.568;13.402;2024-02-21T01:16:07;24.23;;;10.17;;
781;SDS011;374;52.568;13.402;2024-02-21T01:18:34;22.17;;;9.80;;
781;SDS011;374;52.568;13.402;2024-02-21T01:21:00;18.93;;;10.30;;
781;SDS011;374;52.568;13.402;2024-02-21T01:23:26;17.27;;;9.20;;
781;SDS011;374;52.568;13.402;2024-02-21T01:25:52;19.57;;;11.00;;
781;SDS011;374;52.568;13.402;2024-02-21T01:28:20;13.40;;;9.47;;
781;SDS011;374;52.568;13.402;2024-02-21T01:30:46;17.27;;;9.70;;
781;SDS011;374;52.568;13.402;2024-02-21T01:33:11;24.47;;;12.90;;
781;SDS011;374;52.568;13.402;2024-02-21T01:35:37;16.30;;;10.20;;
781;SDS011;374;52.568;13.402;2024-02-21T01:38:03;20.60;;;10.50;;
781;SDS011;374;52.568;13.402;2024-02-21T01:40:29;19.70;;;11.80;;
781;SDS011;374;52.568;13.402;2024-02-21T01:42:55;20.87;;;9.10;;
781;SDS011;374;52.568;13.402;2024-02-21T01:45:21;14.87;;;9.00;;
781;SDS011;374;52.568;13.402;2024-02-21T01:47:47;18.17;;;8.97;;
781;SDS011;374;52.568;13.402;2024-02-21T01:50:14;15.90;;;9.10;;
781;SDS011;374;52.568;13.402;2024-02-21T01:52:40;68.70;;;11.77;;
781;SDS011;374;52.568;13.402;2024-02-21T01:55:08;18.80;;;8.60;;
781;SDS011;374;52.568;13.402;2024-02-21T01:57:35;11.83;;;8.33;;
781;SDS011;374;52.568;13.402;2024-02-21T02:00:01;17.37;;;11.90;;
781;SDS011;374;52.568;13.402;2024-02-21T02:02:28;19.73;;;10.00;;
781;SDS011;374;52.568;13.402;2024-02-21T02:04:55;14.23;;;8.30;;
781;SDS011;374;52.568;13.402;2024-02-21T02:07:21;23.97;;;9.47;;
781;SDS011;374;52.568;13.402;2024-02-21T02:09:47;20.47;;;10.73;;
781;SDS011;374;52.568;13.402;2024-02-21T02:12:13;18.80;;;8.23;;
781;SDS011;374;52.568;13.402;2024-02-21T02:14:39;25.70;;;10.63;;
781;SDS011;374;52.568;13.402;2024-02-21T02:17:05;15.53;;;10.30;;
781;SDS011;374;52.568;13.402;2024-02-21T02:19:31;22.40;;;10.20;;
781;SDS011;374;52.568;13.402;2024-02-21T02:22:03;16.93;;;10.70;;
781;SDS011;374;52.568;13.402;2024-02-21T02:24:32;21.80;;;12.53;;
781;SDS011;374;52.568;13.402;2024-02-21T02:26:58;35.47;;;14.57;;
781;SDS011;374;52.568;13.402;2024-02-21T02:29:24;19.67;;;9.30;;
781;SDS011;374;52.568;13.402;2024-02-21T02:31:50;20.13;;;10.70;;
781;SDS011;374;52.568;13.402;2024-02-21T02:34:16;18.17;;;9.53;;
781;SDS011;374;52.568;13.402;2024-02-21T02:36:42;17.83;;;8.90;;
781;SDS011;374;52.568;13.402;2024-02-21T02:39:08;18.10;;;10.40;;
781;SDS011;374;52.568;13.402;2024-02-21T02:41:35;21.03;;;10.53;;
781;SDS011;374;52.568;13.402;2024-02-21T02:44:01;18.77;;;10.10;;
781;SDS011;374;52.568;13.402;2024-02-21T02:46:27;21.27;;;12.23;;
781;SDS011;374;52.568;13.402;2024-02-21T02:48:53;20.47;;;10.90;;
781;SDS011;374;52.568;13.402;2024-02-21T02:51:19;29.23;;;10.43;;
781;SDS011;374;52.568;13.402;2024-02-21T02:53:45;27.37;;;11.13;;
781;SDS011;374;52.568;13.402;2024-02-21T02:56:14;19.33;;;8.40;;
781;SDS011;374;52.568;13.402;2024-02-21T02:58:41;18.10;;;10.20;;
781;SDS011;374;52.568;13.402;2024-02-21T03:01:07;22.53;;;11.37;;
781;SDS011;374;52.568;13.402;2024-02-21T03:03:33;24.30;;;11.50;;
781;SDS011;374;52.568;13.402;2024-02-21T03:05:58;17.13;;;9.90;;
781;SDS011;374;52.568;13.402;2024-02-21T03:08:24;14.17;;;8.33;;
781;SDS011;374;52.568;13.402;2024-02-21T03:10:50;16.67;;;8.60;;
781;SDS011;374;52.568;13.402;2024-02-21T03:13:16;17.73;;;7.67;;
781;SDS011;374;52.568;13.402;2024-02-21T03:15:42;14.43;;;9.27;;
781;SDS011;374;52.568;13.402;2024-02-21T03:18:08;20.33;;;9.40;;
781;SDS011;374;52.568;13.402;2024-02-21T03:20:34;16.10;;;9.50;;
781;SDS011;374;52.568;13.402;2024-02-21T03:23:00;19.97;;;9.13;;
781;SDS011;374;52.568;13.402;2024-02-21T03:25:26;18.43;;;10.37;;
781;SDS011;374;52.568;13.402;2024-02-21T03:27:52;17.57;;;9.83;;
781;SDS011;374;52.568;13.402;2024-02-21T03:30:18;21.90;;;11.67;;
781;SDS011;374;52.568;13.402;2024-02-21T03:32:44;21.77;;;10.63;;
781;SDS011;374;52.568;13.402;2024-02-21T03:35:10;20.80;;;11.37;;
781;SDS011;374;52.568;13.402;2024-02-21T03:37:35;20.60;;;11.03;;
781;SDS011;374;52.568;13.402;2024-02-21T03:40:01;21.10;;;9.60;;
781;SDS011;374;52.568;13.402;2024-02-21T03:42:27;15.90;;;9.27;;
781;SDS011;374;52.568;13.402;2024-02-21T03:44:55;22.07;;;10.90;;
781;SDS011;374;52.568;13.402;2024-02-21T03:47:21;17.47;;;9.70;;
781;SDS011;374;52.568;13.402;2024-02-21T03:49:47;17.00;;;9.47;;
781;SDS011;374;52.568;13.402;2024-02-21T03:52:13;21.57;;;9.90;;
781;SDS011;374;52.568;13.402;2024-02-21T03:54:39;13.70;;;9.10;;
781;SDS011;374;52.568;13.402;2024-02-21T03:57:05;20.67;;;9.93;;
781;SDS011;374;52.568;13.402;2024-02-21T03:59:31;18.53;;;10.07;;
781;SDS011;374;52.568;13.402;2024-02-21T04:01:57;13.93;;;9.17;;
781;SDS011;374;52.568;13.402;2024-02-21T04:04:24;14.23;;;9.03;;
781;SDS011;374;52.568;13.402;2024-02-21T04:06:50;17.50;;;9.47;;
781;SDS011;374;52.568;13.402;2024-02-21T04:09:16;16.77;;;9.57;;
781;SDS011;374;52.568;13.402;2024-02-21T04:11:42;17.60;;;8.90;;
781;SDS011;374;52.568;13.402;2024-02-21T04:14:08;17.53;;;11.50;;
781;SDS011;374;52.568;13.402;2024-02-21T04:16:36;18.37;;;10.50;;
781;SDS011;374;52.568;13.402;2024-02-21T04:19:02;21.53;;;11.20;;
781;SDS011;374;52.568;13.402;2024-02-21T04:21:28;14.27;;;9.90;;
781;SDS011;374;52.568;13.402;2024-02-21T04:23:54;19.70;;;10.47;;
781;SDS011;374;52.568;13.402;2024-02-21T04:26:20;21.10;;;9.30;;
781;SDS011;374;52.568;13.402;2024-02-21T04:28:46;18.70;;;10.70;;
781;SDS011;374;52.568;13.402;2024-02-21T04:31:12;25.47;;;11.07;;
781;SDS011;374;52.568;13.402;2024-02-21T04:33:38;20.20;;;10.87;;
781;SDS011;374;52.568;13.402;2024-02-21T04:36:04;19.60;;;9.50;;
781;SDS011;374;52.568;13.402;2024-02-21T04:38:30;17.50;;;10.30;;
781;SDS011;374;52.568;13.402;2024-02-21T04:40:56;21.10;;;11.17;;
781;SDS011;374;52.568;13.402;2024-02-21T04:43:23;18.87;;;11.50;;
781;SDS011;374;52.568;13.402;2024-02-21T04:45:49;19.87;;;11.87;;
781;SDS011;374;52.568;13.402;2024-02-21T04:48:15;19.60;;;10.37;;
781;SDS011;374;52.568;13.402;2024-02-21T04:50:41;16.73;;;11.03;;
781;SDS011;374;52.568;13.402;2024-02-21T04:53:07;18.10;;;10.90;;
781;SDS011;374;52.568;13.402;2024-02-21T04:55:33;22.67;;;12.17;;
781;SDS011;374;52.568;13.402;2024-02-21T04:57:59;18.30;;;9.67;;
781;SDS011;374;52.568;13.402;2024-02-21T05:00:27;20.77;;;9.47;;
781;SDS011;374;52.568;13.402;2024-02-21T05:02:53;21.90;;;11.30;;
781;SDS011;374;52.568;13.402;2024-02-21T05:05:19;23.03;;;11.70;;
781;SDS011;374;52.568;13.402;2024-02-21T05:07:45;18.97;;;9.87;;
781;SDS011;374;52.568;13.402;2024-02-21T05:10:11;20.03;;;10.63;;
781;SDS011;374;52.568;13.402;2024-02-21T05:12:37;21.93;;;9.87;;
781;SDS011;374;52.568;13.402;2024-02-21T05:15:03;21.40;;;10.77;;
781;SDS011;374;52.568;13.402;2024-02-21T05:17:29;22.83;;;11.47;;
781;SDS011;374;52.568;13.402;2024-02-21T05:19:55;25.77;;;11.67;;
781;SDS011;374;52.568;13.402;2024-02-21T05:22:21;21.57;;;10.97;;
781;SDS011;374;52.568;13.402;2024-02-21T05:24:47;24.43;;;9.90;;
781;SDS011;374;52.568;13.402;2024-02-21T05:27:13;16.80;;;9.60;;
781;SDS011;374;52.568;13.402;2024-02-21T05:29:41;30.20;;;11.33;;
781;SDS011;374;52.568;13.402;2024-02-21T05:32:07;18.30;;;10.30;;
781;SDS011;374;52.568;13.402;2024-02-21T05:34:33;16.27;;;11.20;;
781;SDS011;374;52.568;13.402;2024-02-21T05:37:02;23.20;;;11.33;;
781;SDS011;374;52.568;13.402;2024-02-21T05:39:30;21.47;;;12.97;;
781;SDS011;374;52.568;13.402;2024-02-21T05:41:56;27.73;;;12.20;;
781;SDS011;374;52.568;13.402;2024-02-21T05:44:22;21.00;;;10.60;;
781;SDS011;374;52.568;13.402;2024-02-21T05:46:48;20.67;;;11.77;;
781;SDS011;374;52.568;13.402;2024-02-21T05:49:14;22.47;;;12.20;;
781;SDS011;374;52.568;13.402;2024-02-21T05:51:40;15.87;;;10.70;;
781;SDS011;374;52.568;13.402;2024-02-21T05:54:06;19.40;;;12.27;;
781;SDS011;374;52.568;13.402;2024-02-21T05:56:32;17.67;;;11.20;;
781;SDS011;374;52.568;13.402;2024-02-21T05:59:01;32.10;;;12.80;;
781;SDS011;374;52.568;13.402;2024-02-21T06:01:27;27.80;;;11.47;;
781;SDS011;374;52.568;13.402;2024-02-21T06:03:53;19.90;;;12.77;;
781;SDS011;374;52.568;13.402;2024-02-21T06:06:19;19.73;;;11.20;;
781;SDS011;374;52.568;13.402;2024-02-21T06:08:46;26.47;;;11.70;;
781;SDS011;374;52.568;13.402;2024-02-21T06:11:12;17.57;;;12.87;;
781;SDS011;374;52.568;13.402;2024-02-21T06:13:40;25.60;;;11.57;;
781;SDS011;374;52.568;13.402;2024-02-21T06:16:06;19.17;;;12.53;;
781;SDS011;374;52.568;13.402;2024-02-21T06:18:33;23.60;;;12.30;;
781;SDS011;374;52.568;13.402;2024-02-21T06:20:59;21.43;;;12.00;;
781;SDS011;374;52.568;13.402;2024-02-21T06:23:25;20.87;;;12.90;;
781;SDS011;374;52.568;13.402;2024-02-21T06:25:51;20.03;;;12.27;;
781;SDS011;374;52.568;13.402;2024-02-21T06:28:17;24.90;;;12.57;;
781;SDS011;374;52.568;13.402;2024-02-21T06:30:43;24.13;;;12.03;;
781;SDS011;374;52.568;13.402;2024-02-21T06:33:09;18.50;;;12.43;;
781;SDS011;374;52.568;13.402;2024-02-21T06:35:35;21.30;;;12.63;;
781;SDS011;374;52.568;13.402;2024-02-21T06:38:01;26.50;;;14.07;;
781;SDS011;374;52.568;13.402;2024-02-21T06:40:27;31.70;;;13.37;;
781;SDS011;374;52.568;13.402;2024-02-21T06:42:52;23.67;;;11.97;;
781;SDS011;374;52.568;13.402;2024-02-21T06:45:18;22.83;;;13.00;;
781;SDS011;374;52.568;13.402;2024-02-21T06:47:44;18.40;;;11.80;;
781;SDS011;374;52.568;13.402;2024-02-21T06:50:10;19.00;;;11.87;;
781;SDS011;374;52.568;13.402;2024-02-21T06:52:36;28.20;;;13.93;;
781;SDS011;374;52.568;13.402;2024-02-21T06:55:02;29.63;;;13.13;;
781;SDS011;374;52.568;13.402;2024-02-21T06:57:28;18.53;;;12.03;;
781;SDS011;374;52.568;13.402;2024-02-21T06:59:54;16.63;;;11.60;;
781;SDS011;374;52.568;13.402;2024-02-21T07:02:20;20.57;;;12.40;;
781;SDS011;374;52.568;13.402;2024-02-21T07:04:46;23.33;;;13.40;;
781;SDS011;374;52.568;13.402;2024-02-21T07:07:12;25.43;;;13.97;;
781;SDS011;374;52.568;13.402;2024-02-21T07:09:38;25.50;;;14.00;;
781;SDS011;374;52.568;13.402;2024-02-21T07:12:04;24.50;;;14.10;;
781;SDS011;374;52.568;13.402;2024-02-21T07:14:32;21.23;;;13.80;;
781;SDS011;374;52.568;13.402;2024-02-21T07:16:58;28.73;;;14.80;;
781;SDS011;374;52.568;13.402;2024-02-21T07:19:24;26.60;;;13.70;;
781;SDS011;374;52.568;13.402;2024-02-21T07:21:49;23.30;;;13.40;;
781;SDS011;374;52.568;13.402;2024-02-21T07:24:16;26.30;;;14.27;;
781;SDS011;374;52.568;13.402;2024-02-21T07:26:42;21.97;;;13.53;;
781;SDS011;374;52.568;13.402;2024-02-21T07:29:08;21.27;;;12.93;;
781;SDS011;374;52.568;13.402;2024-02-21T07:31:41;18.70;;;13.07;;
781;SDS011;374;52.568;13.402;2024-02-21T07:34:16;23.93;;;13.00;;
781;SDS011;374;52.568;13.402;2024-02-21T07:36:45;28.47;;;14.97;;
781;SDS011;374;52.568;13.402;2024-02-21T07:39:11;19.80;;;12.03;;
781;SDS011;374;52.568;13.402;2024-02-21T07:41:37;25.13;;;13.47;;
781;SDS011;374;52.568;13.402;2024-02-21T07:44:04;27.50;;;13.63;;
781;SDS011;374;52.568;13.402;2024-02-21T07:46:30;24.10;;;14.50;;
781;SDS011;374;52.568;13.402;2024-02-21T07:48:56;22.70;;;12.93;;
781;SDS011;374;52.568;13.402;2024-02-21T07:51:22;26.43;;;12.77;;
781;SDS011;374;52.568;13.402;2024-02-21T07:53:48;21.47;;;12.30;;
781;SDS011;374;52.568;13.402;2024-02-21T07:56:14;26.30;;;13.73;;
781;SDS011;374;52.568;13.402;2024-02-21T07:58:40;23.70;;;13.37;;
781;SDS011;374;52.568;13.402;2024-02-21T08:01:07;20.90;;;11.90;;
781;SDS011;374;52.568;13.402;2024-02-21T08:03:33;20.73;;;11.57;;
781;SDS011;374;52.568;13.402;2024-02-21T08:06:02;22.03;;;11.80;;
781;SDS011;374;52.568;13.402;2024-02-21T08:08:29;18.57;;;11.60;;
781;SDS011;374;52.568;13.402;2024-02-21T08:10:55;21.80;;;12.77;;
781;SDS011;374;52.568;13.402;2024-02-21T08:13:21;23.90;;;11.67;;
781;SDS011;374;52.568;13.402;2024-02-21T08:15:47;20.07;;;13.00;;
781;SDS011;374;52.568;13.402;2024-02-21T08:18:13;22.20;;;12.23;;
781;SDS011;374;52.568;13.402;2024-02-21T08:20:38;21.13;;;12.20;;
781;SDS011;374;52.568;13.402;2024-02-21T08:23:04;21.93;;;11.23;;
781;SDS011;374;52.568;13.402;2024-02-21T08:25:30;20.23;;;11.10;;
781;SDS011;374;52.568;13.402;2024-02-21T08:27:59;19.40;;;11.53;;
781;SDS011;374;52.568;13.402;2024-02-21T08:30:25;24.70;;;12.40;;
781;SDS011;374;52.568;13.402;2024-02-21T08:32:51;19.07;;;11.67;;
781;SDS011;374;52.568;13.402;2024-02-21T08:35:19;27.23;;;12.80;;
781;SDS011;374;52.568;13.402;2024-02-21T08:37:49;24.20;;;12.87;;
781;SDS011;374;52.568;13.402;2024-02-21T08:40:15;24.13;;;12.70;;
781;SDS011;374;52.568;13.402;2024-02-21T08:42:46;22.07;;;14.40;;
781;SDS011;374;52.568;13.402;2024-02-21T08:45:14;23.63;;;13.23;;
781;SDS011;374;52.568;13.402;2024-02-21T08:47:40;31.47;;;14.30;;
781;SDS011;374;52.568;13.402;2024-02-21T08:50:07;22.63;;;13.20;;
781;SDS011;374;52.568;13.402;2024-02-21T08:52:34;26.67;;;14.50;;
781;SDS011;374;52.568;13.402;2024-02-21T08:55:03;22.73;;;12.77;;
781;SDS011;374;52.568;13.402;2024-02-21T08:57:29;22.87;;;14.17;;
781;SDS011;374;52.568;13.402;2024-02-21T09:00:02;22.00;;;13.70;;
781;SDS011;374;52.568;13.402;2024-02-21T09:02:34;29.70;;;13.33;;
781;SDS011;374;52.568;13.402;2024-02-21T09:05:00;24.80;;;13.77;;
781;SDS011;374;52.568;13.402;2024-02-21T09:07:26;29.17;;;14.00;;
781;SDS011;374;52.568;13.402;2024-02-21T09:09:52;24.93;;;16.10;;
781;SDS011;374;52.568;13.402;2024-02-21T09:12:18;27.87;;;15.43;;
781;SDS011;374;52.568;13.402;2024-02-21T09:14:44;26.87;;;15.40;;
781;SDS011;374;52.568;13.402;2024-02-21T09:17:12;22.87;;;12.87;;
781;SDS011;374;52.568;13.402;2024-02-21T09:19:39;26.60;;;15.23;;
781;SDS011;374;52.568;13.402;2024-02-21T09:22:05;24.40;;;14.53;;
781;SDS011;374;52.568;13.402;2024-02-21T09:24:31;27.37;;;14.50;;
781;SDS011;374;52.568;13.402;2024-02-21T09:26:59;24.70;;;15.80;;
781;SDS011;374;52.568;13.402;2024-02-21T09:29:25;23.67;;;15.27;;
781;SDS011;374;52.568;13.402;2024-02-21T09:31:51;28.10;;;15.87;;
781;SDS011;374;52.568;13.402;2024-02-21T09:34:17;24.77;;;14.53;;
781;SDS011;374;52.568;13.402;2024-02-21T09:36:44;32.90;;;17.17;;
781;SDS011;374;52.568;13.402;2024-02-21T09:39:10;26.17;;;15.10;;
781;SDS011;374;52.568;13.402;2024-02-21T09:41:43;32.57;;;16.40;;
781;SDS011;374;52.568;13.402;2024-02-21T09:44:11;25.73;;;16.20;;
781;SDS011;374;52.568;13.402;2024-02-21T09:47:02;26.30;;;16.10;;
781;SDS011;374;52.568;13.402;2024-02-21T09:49:34;29.43;;;17.03;;
781;SDS011;374;52.568;13.402;2024-02-21T09:52:05;28.13;;;17.10;;
781;SDS011;374;52.568;13.402;2024-02-21T09:54:35;25.80;;;16.37;;
781;SDS011;374;52.568;13.402;2024-02-21T09:57:01;30.80;;;16.33;;
781;SDS011;374;52.568;13.402;2024-02-21T09:59:28;27.77;;;16.70;;
781;SDS011;374;52.568;13.402;2024-02-21T10:02:15;28.73;;;18.00;;
781;SDS011;374;52.568;13.402;2024-02-21T10:04:40;36.90;;;18.40;;
781;SDS011;374;52.568;13.402;2024-02-21T10:07:06;23.20;;;14.43;;
781;SDS011;374;52.568;13.402;2024-02-21T10:09:33;33.33;;;17.70;;
781;SDS011;374;52.568;13.402;2024-02-21T10:14:37;25.63;;;16.37;;
781;SDS011;374;52.568;13.402;2024-02-21T10:17:03;30.50;;;17.90;;
781;SDS011;374;52.568;13.402;2024-02-21T10:19:34;32.30;;;18.33;;
781;SDS011;374;52.568;13.402;2024-02-21T10:22:04;26.17;;;17.07;;
781;SDS011;374;52.568;13.402;2024-02-21T10:24:33;24.93;;;17.30;;
781;SDS011;374;52.568;13.402;2024-02-21T10:27:01;26.37;;;17.47;;
781;SDS011;374;52.568;13.402;2024-02-21T10:29:28;23.47;;;17.20;;
781;SDS011;374;52.568;13.402;2024-02-21T10:32:03;29.50;;;15.50;;
781;SDS011;374;52.568;13.402;2024-02-21T10:34:29;24.50;;;15.83;;
781;SDS011;374;52.568;13.402;2024-02-21T10:39:45;26.80;;;15.30;;
781;SDS011;374;52.568;13.402;2024-02-21T10:42:11;24.20;;;14.77;;
781;SDS011;374;52.568;13.402;2024-02-21T10:44:37;21.77;;;14.90;;
781;SDS011;374;52.568;13.402;2024-02-21T10:47:13;22.70;;;15.80;;
781;SDS011;374;52.568;13.402;2024-02-21T10:49:42;26.27;;;15.50;;
781;SDS011;374;52.568;13.402;2024-02-21T10:57:11;23.83;;;16.00;;
781;SDS011;374;52.568;13.402;2024-02-21T10:59:39;31.00;;;16.13;;
781;SDS011;374;52.568;13.402;2024-02-21T11:02:05;27.07;;;14.83;;
781;SDS011;374;52.568;13.402;2024-02-21T11:04:31;20.27;;;14.77;;
781;SDS011;374;52.568;13.402;2024-02-21T11:07:01;26.60;;;15.63;;
781;SDS011;374;52.568;13.402;2024-02-21T11:09:34;22.50;;;15.13;;
781;SDS011;374;52.568;13.402;2024-02-21T11:12:04;19.40;;;14.23;;
781;SDS011;374;52.568;13.402;2024-02-21T11:14:30;24.97;;;14.40;;
781;SDS011;374;52.568;13.402;2024-02-21T11:17:02;23.00;;;14.70;;
781;SDS011;374;52.568;13.402;2024-02-21T11:19:29;23.53;;;15.80;;
781;SDS011;374;52.568;13.402;2024-02-21T11:21:56;22.60;;;15.90;;
781;SDS011;374;52.568;13.402;2024-02-21T11:24:29;21.43;;;14.70;;
781;SDS011;374;52.568;13.402;2024-02-21T11:27:07;29.07;;;16.60;;
781;SDS011;374;52.568;13.402;2024-02-21T11:29:33;23.20;;;14.53;;
781;SDS011;374;52.568;13.402;2024-02-21T11:32:06;26.13;;;14.40;;
781;SDS011;374;52.568;13.402;2024-02-21T11:34:35;22.57;;;14.43;;
781;SDS011;374;52.568;13.402;2024-02-21T11:37:01;21.63;;;14.40;;
781;SDS011;374;52.568;13.402;2024-02-21T11:39:27;26.50;;;16.10;;
781;SDS011;374;52.568;13.402;2024-02-21T11:42:03;22.60;;;12.83;;
781;SDS011;374;52.568;13.402;2024-02-21T11:44:29;15.90;;;11.13;;
781;SDS011;374;52.568;13.402;2024-02-21T11:46:55;19.50;;;13.50;;
781;SDS011;374;52.568;13.402;2024-02-21T11:49:21;21.57;;;13.40;;
781;SDS011;374;52.568;13.402;2024-02-21T11:51:47;20.40;;;12.60;;
781;SDS011;374;52.568;13.402;2024-02-21T11:54:13;22.70;;;13.30;;
781;SDS011;374;52.568;13.402;2024-02-21T11:56:42;20.67;;;12.70;;
781;SDS011;374;52.568;13.402;2024-02-21T11:59:10;15.20;;;12.70;;
781;SDS011;374;52.568;13.402;2024-02-21T12:01:36;24.10;;;13.10;;
781;SDS011;374;52.568;13.402;2024-02-21T12:04:02;13.60;;;10.53;;
781;SDS011;374;52.568;13.402;2024-02-21T12:06:28;14.73;;;11.83;;
781;SDS011;374;52.568;13.402;2024-02-21T12:08:57;18.17;;;11.17;;
781;SDS011;374;52.568;13.402;2024-02-21T12:11:24;17.40;;;12.17;;
781;SDS011;374;52.568;13.402;2024-02-21T12:14:00;19.17;;;11.20;;
781;SDS011;374;52.568;13.402;2024-02-21T12:16:29;16.60;;;11.10;;
781;SDS011;374;52.568;13.402;2024-02-21T12:18:59;18.70;;;9.87;;
781;SDS011;374;52.568;13.402;2024-02-21T12:21:35;19.00;;;10.73;;
781;SDS011;374;52.568;13.402;2024-02-21T12:26:39;17.80;;;11.60;;
781;SDS011;374;52.568;13.402;2024-02-21T12:29:06;18.70;;;12.20;;
781;SDS011;374;52.568;13.402;2024-02-21T12:31:34;14.83;;;10.60;;
781;SDS011;374;52.568;13.402;2024-02-21T12:34:05;15.23;;;9.90;;
781;SDS011;374;52.568;13.402;2024-02-21T12:39:29;17.10;;;10.40;;
781;SDS011;374;52.568;13.402;2024-02-21T12:42:27;14.70;;;11.13;;
781;SDS011;374;52.568;13.402;2024-02-21T12:45:02;15.40;;;11.20;;
781;SDS011;374;52.568;13.402;2024-02-21T12:47:42;21.13;;;10.90;;
781;SDS011;374;52.568;13.402;2024-02-21T12:50:16;17.73;;;11.30;;
781;SDS011;374;52.568;13.402;2024-02-21T12:52:45;14.10;;;11.37;;
781;SDS011;374;52.568;13.402;2024-02-21T12:58:15;15.10;;;10.30;;
781;SDS011;374;52.568;13.402;2024-02-21T13:00:41;14.70;;;10.43;;
781;SDS011;374;52.568;13.402;2024-02-21T13:03:16;18.30;;;10.30;;
781;SDS011;374;52.568;13.402;2024-02-21T13:05:47;19.80;;;10.47;;
781;SDS011;374;52.568;13.402;2024-02-21T13:08:13;16.70;;;11.10;;
781;SDS011;374;52.568;13.402;2024-02-21T13:10:45;16.23;;;10.47;;
781;SDS011;374;52.568;13.402;2024-02-21T13:13:20;16.33;;;9.50;;
781;SDS011;374;52.568;13.402;2024-02-21T13:15:49;13.07;;;8.80;;
781;SDS011;374;52.568;13.402;2024-02-21T13:18:18;10.23;;;8.77;;
781;SDS011;374;52.568;13.402;2024-02-21T13:21:04;12.43;;;9.53;;
781;SDS011;374;52.568;13.402;2024-02-21T13:23:31;13.70;;;8.03;;
781;SDS011;374;52.568;13.402;2024-02-21T13:25:57;16.10;;;8.40;;
781;SDS011;374;52.568;13.402;2024-02-21T13:28:23;19.43;;;9.40;;
781;SDS011;374;52.568;13.402;2024-02-21T13:30:49;12.00;;;8.10;;
781;SDS011;374;52.568;13.402;2024-02-21T13:33:26;14.60;;;9.10;;
781;SDS011;374;52.568;13.402;2024-02-21T13:36:14;18.07;;;10.23;;
781;SDS011;374;52.568;13.402;2024-02-21T13:39:12;15.53;;;9.07;;
781;SDS011;374;52.568;13.402;2024-02-21T13:41:43;19.90;;;10.00;;
781;SDS011;374;52.568;13.402;2024-02-21T13:44:19;12.30;;;9.90;;
781;SDS011;374;52.568;13.402;2024-02-21T13:46:50;14.73;;;9.27;;
781;SDS011;374;52.568;13.402;2024-02-21T13:49:19;15.63;;;9.67;;
781;SDS011;374;52.568;13.402;2024-02-21T13:51:51;15.90;;;9.40;;
781;SDS011;374;52.568;13.402;2024-02-21T13:54:25;15.23;;;9.77;;
781;SDS011;374;52.568;13.402;2024-02-21T13:56:54;17.90;;;10.40;;
781;SDS011;374;52.568;13.402;2024-02-21T13:59:36;15.37;;;9.43;;
781;SDS011;374;52.568;13.402;2024-02-21T14:02:02;15.03;;;9.50;;
781;SDS011;374;52.568;13.402;2024-02-21T14:04:33;19.87;;;9.50;;
781;SDS011;374;52.568;13.402;2024-02-21T14:07:00;16.03;;;10.67;;
781;SDS011;374;52.568;13.402;2024-02-21T14:09:26;13.00;;;9.40;;
781;SDS011;374;52.568;13.402;2024-02-21T14:11:52;21.30;;;9.37;;
781;SDS011;374;52.568;13.402;2024-02-21T14:14:18;15.37;;;9.20;;
781;SDS011;374;52.568;13.402;2024-02-21T14:16:44;18.43;;;10.03;;
781;SDS011;374;52.568;13.402;2024-02-21T14:19:12;14.07;;;9.00;;
781;SDS011;374;52.568;13.402;2024-02-21T14:21:38;15.90;;;9.03;;
781;SDS011;374;52.568;13.402;2024-02-21T14:24:04;14.27;;;9.40;;
781;SDS011;374;52.568;13.402;2024-02-21T14:26:30;14.23;;;9.00;;
781;SDS011;374;52.568;13.402;2024-02-21T14:29:09;15.60;;;9.03;;
781;SDS011;374;52.568;13.402;2024-02-21T14:31:35;14.60;;;8.00;;
781;SDS011;374;52.568;13.402;2024-02-21T14:34:01;9.50;;;8.50;;
781;SDS011;374;52.568;13.402;2024-02-21T14:36:27;13.30;;;8.27;;
781;SDS011;374;52.568;13.402;2024-02-21T14:38:53;13.20;;;8.50;;
781;SDS011;374;52.568;13.402;2024-02-21T14:41:19;15.30;;;8.23;;
781;SDS011;374;52.568;13.402;2024-02-21T14:43:45;18.23;;;9.60;;
781;SDS011;374;52.568;13.402;2024-02-21T14:46:11;10.50;;;7.47;;
781;SDS011;374;52.568;13.402;2024-02-21T14:48:38;19.53;;;11.27;;
781;SDS011;374;52.568;13.402;2024-02-21T14:51:04;11.00;;;7.60;;
781;SDS011;374;52.568;13.402;2024-02-21T14:53:30;9.83;;;8.00;;
781;SDS011;374;52.568;13.402;2024-02-21T14:55:56;14.30;;;8.00;;
781;SDS011;374;52.568;13.402;2024-02-21T14:58:25;9.87;;;6.83;;
781;SDS011;374;52.568;13.402;2024-02-21T15:00:54;8.17;;;6.37;;
781;SDS011;374;52.568;13.402;2024-02-21T15:03:41;13.77;;;7.50;;
781;SDS011;374;52.568;13.402;2024-02-21T15:09:48;8.13;;;6.83;;
781;SDS011;374;52.568;13.402;2024-02-21T15:12:28;14.23;;;7.17;;
781;SDS011;374;52.568;13.402;2024-02-21T15:14:56;10.20;;;8.17;;
781;SDS011;374;52.568;13.402;2024-02-21T15:17:31;12.70;;;7.37;;
781;SDS011;374;52.568;13.402;2024-02-21T15:20:01;9.40;;;6.90;;
781;SDS011;374;52.568;13.402;2024-02-21T15:22:33;14.63;;;7.40;;
781;SDS011;374;52.568;13.402;2024-02-21T15:25:02;10.17;;;6.93;;
781;SDS011;374;52.568;13.402;2024-02-21T15:27:43;11.23;;;7.20;;
781;SDS011;374;52.568;13.402;2024-02-21T15:30:12;8.20;;;7.30;;
781;SDS011;374;52.568;13.402;2024-02-21T15:32:38;7.33;;;6.30;;